createdAt,value
2023-01-13T00:00:20.613Z,11.43
2023-01-13T00:05:44.569Z,11.27
2023-01-13T00:10:51.437Z,11.11
2023-01-13T00:16:05.249Z,10.51
2023-01-13T00:21:15.609Z,11.09
2023-01-13T00:26:26.842Z,12.44
2023-01-13T00:31:31.522Z,12.08
2023-01-13T00:36:35.407Z,11.31
2023-01-13T00:41:57.978Z,11.98
2023-01-13T00:47:02.246Z,11.25
2023-01-13T00:52:06.345Z,11.43
2023-01-13T00:57:10.338Z,11.55
2023-01-13T01:02:14.182Z,11.91
2023-01-13T01:07:18.181Z,11.35
2023-01-13T01:12:21.937Z,11.50
2023-01-13T01:17:25.832Z,12.00
2023-01-13T01:22:29.610Z,11.84
2023-01-13T01:27:33.348Z,11.23
2023-01-13T01:32:36.938Z,11.28
2023-01-13T01:37:40.664Z,11.13
2023-01-13T01:43:02.727Z,11.20
2023-01-13T01:48:08.488Z,11.26
2023-01-13T01:53:21.772Z,11.73
2023-01-13T01:58:42.624Z,11.48
2023-01-13T02:03:58.278Z,10.83
2023-01-13T02:09:02.203Z,10.79
2023-01-13T02:14:06.093Z,10.84
2023-01-13T02:19:21.833Z,10.92
2023-01-13T02:25:10.615Z,10.44
2023-01-13T02:30:48.322Z,10.55
2023-01-13T02:36:13.050Z,10.57
2023-01-13T02:41:51.417Z,10.85
2023-01-13T02:47:20.608Z,10.15
2023-01-13T02:52:36.617Z,10.58
2023-01-13T02:57:43.360Z,10.44
2023-01-13T03:02:49.289Z,10.68
2023-01-13T03:08:04.420Z,11.28
2023-01-13T03:14:04.679Z,11.84
2023-01-13T03:19:49.040Z,12.13
2023-01-13T03:25:07.809Z,11.91
2023-01-13T03:30:29.871Z,11.64
2023-01-13T03:35:44.475Z,11.63
2023-01-13T03:41:01.677Z,11.72
2023-01-13T03:46:27.275Z,11.43
2023-01-13T03:51:34.386Z,11.28
2023-01-13T03:56:59.909Z,11.43
2023-01-13T04:02:20.077Z,11.51
2023-01-13T04:07:48.422Z,12.07
2023-01-13T04:13:08.344Z,12.13
2023-01-13T04:18:26.504Z,11.83
2023-01-13T04:23:30.314Z,11.46
2023-01-13T04:28:35.411Z,11.67
2023-01-13T04:33:39.091Z,11.74
2023-01-13T04:38:42.906Z,11.63
2023-01-13T04:43:46.481Z,12.41
2023-01-13T04:48:50.227Z,12.04
2023-01-13T04:53:53.866Z,11.56
2023-01-13T04:58:57.459Z,11.97
2023-01-13T05:04:01.175Z,11.95
2023-01-13T05:09:04.963Z,11.93
2023-01-13T05:14:27.801Z,11.96
2023-01-13T05:19:35.384Z,12.20
2023-01-13T05:24:57.736Z,11.99
2023-01-13T05:30:02.070Z,12.16
2023-01-13T05:35:05.961Z,12.35
2023-01-13T05:40:31.888Z,12.17
2023-01-13T05:45:35.629Z,12.71
2023-01-13T05:50:40.264Z,12.42
2023-01-13T05:55:45.797Z,12.20
2023-01-13T06:00:50.490Z,11.57
2023-01-13T06:05:59.128Z,11.73
2023-01-13T06:11:03.453Z,12.02
2023-01-13T06:16:07.671Z,12.16
2023-01-13T06:21:11.678Z,12.49
2023-01-13T06:26:22.448Z,12.77
2023-01-13T06:31:29.102Z,12.23
2023-01-13T06:36:56.537Z,12.05
2023-01-13T06:42:18.932Z,11.60
2023-01-13T06:47:22.830Z,11.86
2023-01-13T06:52:27.902Z,12.11
2023-01-13T06:57:31.441Z,11.88
2023-01-13T07:02:35.128Z,11.95
2023-01-13T07:07:40.306Z,11.81
2023-01-13T07:13:03.024Z,11.76
2023-01-13T07:18:07.192Z,11.78
2023-01-13T07:23:11.083Z,12.12
2023-01-13T07:28:15.060Z,12.40
2023-01-13T07:33:19.271Z,12.62
2023-01-13T07:38:23.071Z,13.07
2023-01-13T07:43:33.118Z,13.12
2023-01-13T07:48:37.188Z,12.93
2023-01-13T07:53:41.502Z,12.64
2023-01-13T07:58:50.637Z,12.99
2023-01-13T08:03:56.697Z,12.93
2023-01-13T08:09:00.284Z,13.21
2023-01-13T08:14:04.242Z,13.41
2023-01-13T08:19:08.150Z,12.94
2023-01-13T08:24:12.218Z,13.46
2023-01-13T08:29:15.867Z,13.20
2023-01-13T08:34:19.833Z,13.32
2023-01-13T08:39:25.957Z,13.20
2023-01-13T08:44:32.713Z,12.78
2023-01-13T08:49:36.428Z,12.90
2023-01-13T08:54:40.923Z,12.83
2023-01-13T08:59:45.334Z,13.21
2023-01-13T09:04:50.322Z,13.14
2023-01-13T09:09:54.189Z,12.64
2023-01-13T09:14:58.648Z,12.90
2023-01-13T09:20:02.505Z,13.13
2023-01-13T09:25:07.460Z,13.44
2023-01-13T09:30:11.958Z,13.54
2023-01-13T09:35:17.757Z,13.51
2023-01-13T09:40:23.077Z,13.21
2023-01-13T09:45:38.169Z,13.81
2023-01-13T09:51:17.976Z,13.36
2023-01-13T09:56:23.373Z,13.09
2023-01-13T10:01:42.356Z,13.21
2023-01-13T10:06:58.198Z,12.80
2023-01-13T10:12:22.180Z,12.84
2023-01-13T10:17:44.656Z,12.82
2023-01-13T10:23:17.007Z,12.68
2023-01-13T10:28:24.217Z,12.92
2023-01-13T10:33:29.046Z,13.18
2023-01-13T10:38:35.985Z,13.10
2023-01-13T10:43:40.249Z,13.17
2023-01-13T10:48:58.900Z,12.71
2023-01-13T10:54:25.560Z,12.50
2023-01-13T10:59:30.200Z,12.51
2023-01-13T11:04:39.978Z,12.47
2023-01-13T11:09:43.841Z,12.52
2023-01-13T11:14:49.058Z,12.53
2023-01-13T11:20:14.273Z,12.52
2023-01-13T11:25:45.968Z,12.49
2023-01-13T11:31:19.872Z,12.79
2023-01-13T11:36:33.018Z,12.96
2023-01-13T11:41:47.297Z,13.03
2023-01-13T11:46:54.230Z,12.45
2023-01-13T11:52:50.165Z,12.43
2023-01-13T11:58:19.416Z,12.70
2023-01-13T12:03:38.883Z,12.94
2023-01-13T12:09:05.432Z,12.86
2023-01-13T12:14:49.367Z,12.50
2023-01-13T12:19:53.134Z,11.74
2023-01-13T12:25:21.535Z,11.81
2023-01-13T12:30:51.167Z,11.69
2023-01-13T12:36:21.636Z,11.58
2023-01-13T12:42:05.834Z,11.77
2023-01-13T12:47:39.362Z,12.14
2023-01-13T12:52:46.300Z,12.25
2023-01-13T12:58:03.265Z,11.84
2023-01-13T13:03:12.878Z,11.84
2023-01-13T13:08:38.119Z,11.98
2023-01-13T13:13:49.440Z,11.71
2023-01-13T13:19:20.384Z,11.69
2023-01-13T13:24:25.739Z,12.09
2023-01-13T13:29:53.751Z,11.79
2023-01-13T13:35:19.880Z,11.93
2023-01-13T13:40:43.445Z,12.00
2023-01-13T13:46:11.132Z,12.55
2023-01-13T13:51:46.725Z,12.51
2023-01-13T13:56:51.732Z,12.19
2023-01-13T14:02:04.100Z,11.82
2023-01-13T14:07:21.638Z,11.98
2023-01-13T14:12:28.032Z,12.03
2023-01-13T14:17:32.021Z,11.98
2023-01-13T14:22:37.699Z,12.20
2023-01-13T14:27:47.351Z,12.72
2023-01-13T14:32:58.118Z,13.49
2023-01-13T14:38:13.627Z,13.34
2023-01-13T14:43:24.995Z,13.86
2023-01-13T14:48:36.938Z,13.81
2023-01-13T14:53:47.645Z,13.55
2023-01-13T14:58:51.314Z,13.44
2023-01-13T15:03:55.985Z,13.79
2023-01-13T15:08:59.804Z,13.33
2023-01-13T15:14:11.817Z,13.41
2023-01-13T15:19:15.604Z,13.60
2023-01-13T15:24:19.290Z,13.49
2023-01-13T15:29:24.470Z,13.57
2023-01-13T15:34:28.425Z,13.36
2023-01-13T15:39:32.327Z,13.60
2023-01-13T15:44:54.745Z,13.75
2023-01-13T15:49:58.699Z,12.96
2023-01-13T15:55:02.407Z,12.71
2023-01-13T16:00:22.072Z,12.97
2023-01-13T16:05:26.582Z,13.13
2023-01-13T16:10:30.402Z,12.66
2023-01-13T16:15:34.229Z,13.25
2023-01-13T16:20:37.945Z,13.53
2023-01-13T16:25:45.243Z,13.37
2023-01-13T16:30:49.390Z,13.63
2023-01-13T16:36:10.934Z,13.85
2023-01-13T16:41:16.608Z,13.02
2023-01-13T16:46:26.388Z,13.19
2023-01-13T16:51:30.253Z,12.94
2023-01-13T16:56:37.313Z,12.66
2023-01-13T17:01:43.823Z,13.36
2023-01-13T17:07:07.118Z,13.16
2023-01-13T17:12:12.179Z,13.56
2023-01-13T17:17:28.878Z,14.00
2023-01-13T17:22:33.126Z,12.93
2023-01-13T17:27:37.275Z,12.73
2023-01-13T17:32:42.300Z,13.08
2023-01-13T17:37:46.415Z,13.61
2023-01-13T17:42:50.280Z,14.07
2023-01-13T17:48:00.417Z,14.04
2023-01-13T17:53:04.091Z,13.59
2023-01-13T17:58:08.969Z,13.57
2023-01-13T18:03:13.145Z,14.09
2023-01-13T18:08:17.620Z,13.77
2023-01-13T18:13:21.271Z,14.01
2023-01-13T18:18:24.965Z,13.86
2023-01-13T18:23:47.442Z,13.60
2023-01-13T18:28:51.280Z,13.51
2023-01-13T18:33:55.337Z,14.00
2023-01-13T18:38:59.080Z,14.38
2023-01-13T18:44:04.301Z,14.11
2023-01-13T18:49:08.234Z,12.82
2023-01-13T18:54:12.487Z,13.49
2023-01-13T18:59:18.124Z,13.61
2023-01-13T19:04:23.893Z,13.83
2023-01-13T19:09:31.802Z,14.16
2023-01-13T19:14:38.420Z,14.20
2023-01-13T19:19:49.428Z,13.04
2023-01-13T19:24:54.350Z,13.18
2023-01-13T19:30:01.889Z,13.85
2023-01-13T19:35:08.183Z,14.00
2023-01-13T19:40:16.172Z,13.65
2023-01-13T19:45:31.709Z,13.62
2023-01-13T19:50:40.276Z,13.42
2023-01-13T19:55:48.858Z,13.01
2023-01-13T20:00:54.837Z,12.63
2023-01-13T20:06:10.613Z,12.33
2023-01-13T20:11:33.709Z,12.23
2023-01-13T20:16:37.798Z,12.37
2023-01-13T20:21:43.830Z,12.46
2023-01-13T20:26:47.814Z,12.58
2023-01-13T20:31:51.929Z,12.35
2023-01-13T20:36:56.274Z,12.20
2023-01-13T20:42:18.782Z,11.36
2023-01-13T20:47:23.571Z,11.59
2023-01-13T20:52:29.155Z,11.56
2023-01-13T20:57:33.276Z,11.46
2023-01-13T21:02:38.976Z,10.94
2023-01-13T21:07:42.902Z,11.01
2023-01-13T21:13:05.818Z,11.52
2023-01-13T21:18:28.183Z,11.56
2023-01-13T21:23:32.097Z,11.76
2023-01-13T21:28:37.238Z,11.65
2023-01-13T21:33:41.109Z,11.39
2023-01-13T21:38:44.998Z,12.05
2023-01-13T21:44:07.656Z,11.39
2023-01-13T21:49:11.884Z,11.18
2023-01-13T21:54:15.614Z,11.74
2023-01-13T21:59:20.164Z,11.77
2023-01-13T22:04:23.902Z,11.76
2023-01-13T22:09:27.636Z,11.18
2023-01-13T22:14:31.501Z,11.57
2023-01-13T22:19:39.503Z,11.86
2023-01-13T22:24:44.313Z,11.51
2023-01-13T22:29:50.084Z,11.15
2023-01-13T22:34:53.847Z,11.10
2023-01-13T22:39:57.528Z,11.33
2023-01-13T22:45:01.367Z,11.48
2023-01-13T22:50:07.863Z,11.75
2023-01-13T22:55:11.725Z,11.55
2023-01-13T23:00:19.461Z,11.07
2023-01-13T23:05:23.522Z,10.49
2023-01-13T23:10:27.329Z,11.01
2023-01-13T23:15:31.436Z,11.35
2023-01-13T23:20:35.301Z,10.91
2023-01-13T23:25:39.090Z,10.25
2023-01-13T23:30:42.720Z,10.68
2023-01-13T23:36:19.389Z,11.15
2023-01-13T23:41:26.176Z,10.75
2023-01-13T23:46:33.499Z,10.64
2023-01-13T23:51:37.443Z,10.37
2023-01-13T23:56:41.348Z,9.94
